Wright Pat, Ohio
Current Conditions -  °F | °C
As of 11:19 AM on Thursday 29 Jan 2015 (Local Time) from KFFO Reporting Station
Overcast Overcast  
Wind Chill: 33°   Ceiling: 3600
Heat Index: 41°   Visibility: 10mi
Dew Point: 32°   Wind: 15mph
Humidity: 70%   Direction: 200°SSW
Pressure: 29.8"   Gusts: NA
Location:  39.8169°N, 84.0506°W
Report Text: KFFO 291619Z 20013KT 10SM OVC036 05/00 A2980 RMK AO2A SLP100
Loading
Personal Weather Stations






























Interactive Weather Map New forecast layout! Learn more

10-Day Weather Forecast

Advertisements
Track Severe Weather on mobile